createdAt,value
2023-04-27T00:02:23.335Z,99.90
2023-04-27T00:05:11.093Z,99.90
2023-04-27T00:07:57.673Z,99.90
2023-04-27T00:10:44.460Z,99.90
2023-04-27T00:13:31.243Z,99.90
2023-04-27T00:16:18.765Z,99.90
2023-04-27T00:19:06.773Z,99.90
2023-04-27T00:21:53.478Z,99.90
2023-04-27T00:24:39.820Z,99.90
2023-04-27T00:27:26.275Z,99.90
2023-04-27T00:30:12.862Z,99.90
2023-04-27T00:32:59.317Z,99.90
2023-04-27T00:35:47.147Z,99.90
2023-04-27T00:38:33.920Z,99.90
2023-04-27T00:41:20.236Z,99.90
2023-04-27T00:44:07.049Z,99.90
2023-04-27T00:46:54.171Z,99.90
2023-04-27T00:49:41.710Z,99.90
2023-04-27T00:52:29.549Z,99.90
2023-04-27T00:55:16.337Z,99.90
2023-04-27T00:58:02.811Z,99.90
2023-04-27T01:00:49.017Z,99.90
2023-04-27T01:03:35.879Z,99.90
2023-04-27T01:06:22.348Z,99.90
2023-04-27T01:09:13.425Z,99.90
2023-04-27T01:11:59.923Z,99.90
2023-04-27T01:14:46.600Z,99.90
2023-04-27T01:17:33.308Z,99.90
2023-04-27T01:20:20.464Z,99.90
2023-04-27T01:23:07.387Z,99.90
2023-04-27T01:25:55.437Z,99.90
2023-04-27T01:28:41.949Z,99.90
2023-04-27T01:31:28.559Z,99.90
2023-04-27T01:34:14.852Z,99.90
2023-04-27T01:37:01.437Z,99.90
2023-04-27T01:39:48.052Z,99.90
2023-04-27T01:42:35.816Z,99.90
2023-04-27T01:45:22.601Z,99.90
2023-04-27T01:48:09.361Z,99.90
2023-04-27T01:50:56.288Z,99.90
2023-04-27T01:53:43.516Z,99.90
2023-04-27T01:56:30.311Z,99.90
2023-04-27T01:59:18.511Z,99.90
2023-04-27T02:02:05.259Z,99.90
2023-04-27T02:04:52.167Z,99.90
2023-04-27T02:07:39.028Z,99.90
2023-04-27T02:10:25.597Z,99.90
2023-04-27T02:13:12.635Z,99.90
2023-04-27T02:16:02.128Z,99.90
2023-04-27T02:18:49.065Z,99.90
2023-04-27T02:21:35.243Z,99.90
2023-04-27T02:24:21.717Z,99.90
2023-04-27T02:27:08.270Z,99.90
2023-04-27T02:29:55.268Z,99.90
2023-04-27T02:32:43.993Z,99.90
2023-04-27T02:35:32.453Z,99.90
2023-04-27T02:38:19.334Z,99.90
2023-04-27T02:41:05.850Z,99.90
2023-04-27T02:43:52.806Z,99.90
2023-04-27T02:46:40.964Z,99.90
2023-04-27T02:49:28.865Z,99.90
2023-04-27T02:52:15.437Z,99.90
2023-04-27T02:55:01.957Z,99.90
2023-04-27T02:57:48.199Z,99.90
2023-04-27T03:00:34.693Z,99.90
2023-04-27T03:03:21.470Z,99.90
2023-04-27T03:06:09.724Z,99.90
2023-04-27T03:08:56.102Z,99.90
2023-04-27T03:11:42.659Z,99.90
2023-04-27T03:14:29.048Z,99.90
2023-04-27T03:17:15.617Z,99.90
2023-04-27T03:20:02.327Z,99.90
2023-04-27T03:22:50.436Z,99.90
2023-04-27T03:25:37.062Z,99.90
2023-04-27T03:28:23.535Z,99.90
2023-04-27T03:31:11.894Z,99.90
2023-04-27T03:33:58.242Z,99.90
2023-04-27T03:36:44.714Z,99.90
2023-04-27T03:39:32.610Z,99.90
2023-04-27T03:42:18.877Z,99.90
2023-04-27T03:45:06.617Z,99.90
2023-04-27T03:47:53.484Z,99.90
2023-04-27T03:50:39.879Z,99.90
2023-04-27T03:53:26.228Z,99.90
2023-04-27T03:56:14.094Z,99.90
2023-04-27T03:59:01.071Z,99.90
2023-04-27T04:01:47.702Z,99.90
2023-04-27T04:04:34.415Z,99.90
2023-04-27T04:07:21.847Z,99.90
2023-04-27T04:10:09.594Z,99.90
2023-04-27T04:12:57.748Z,99.90
2023-04-27T04:15:44.430Z,99.90
2023-04-27T04:18:30.970Z,99.90
2023-04-27T04:21:17.688Z,99.90
2023-04-27T04:24:04.937Z,99.90
2023-04-27T04:26:51.489Z,99.90
2023-04-27T04:29:40.348Z,99.90
2023-04-27T04:32:31.231Z,99.90
2023-04-27T04:35:21.786Z,99.90
2023-04-27T04:38:08.647Z,99.90
2023-04-27T04:40:55.304Z,99.90
2023-04-27T04:43:42.188Z,99.90
2023-04-27T04:46:30.513Z,99.90
2023-04-27T04:49:16.921Z,99.90
2023-04-27T04:52:04.113Z,99.90
2023-04-27T04:54:52.897Z,99.90
2023-04-27T04:57:39.674Z,99.90
2023-04-27T05:00:26.364Z,99.90
2023-04-27T05:03:14.226Z,99.90
2023-04-27T05:06:01.275Z,99.90
2023-04-27T05:08:47.773Z,99.90
2023-04-27T05:11:33.976Z,99.90
2023-04-27T05:14:20.399Z,99.90
2023-04-27T05:17:06.652Z,99.90
2023-04-27T05:19:54.513Z,99.90
2023-04-27T05:22:41.012Z,99.90
2023-04-27T05:25:27.318Z,99.90
2023-04-27T05:28:13.816Z,99.90
2023-04-27T05:31:00.507Z,99.90
2023-04-27T05:33:46.982Z,99.90
2023-04-27T05:36:34.784Z,99.90
2023-04-27T05:39:21.259Z,99.90
2023-04-27T05:42:07.625Z,99.90
2023-04-27T05:44:54.093Z,99.90
2023-04-27T05:47:41.114Z,99.90
2023-04-27T05:50:27.557Z,99.90
2023-04-27T05:53:15.185Z,99.90
2023-04-27T05:56:04.270Z,99.90
2023-04-27T05:58:51.788Z,99.90
2023-04-27T06:01:38.320Z,99.90
2023-04-27T06:04:25.883Z,99.90
2023-04-27T06:07:13.569Z,99.90
2023-04-27T06:10:01.657Z,99.90
2023-04-27T06:12:48.058Z,99.90
2023-04-27T06:15:34.538Z,99.90
2023-04-27T06:18:21.060Z,99.90
2023-04-27T06:21:07.620Z,99.90
2023-04-27T06:23:54.248Z,99.90
2023-04-27T06:26:41.991Z,99.90
2023-04-27T06:29:28.335Z,99.90
2023-04-27T06:32:14.784Z,99.90
2023-04-27T06:35:01.515Z,99.90
2023-04-27T06:37:48.200Z,99.90
2023-04-27T06:40:34.657Z,99.90
2023-04-27T06:43:22.350Z,99.90
2023-04-27T06:46:09.026Z,99.90
2023-04-27T06:48:55.570Z,99.90
2023-04-27T06:51:42.050Z,99.90
2023-04-27T06:54:28.376Z,99.90
2023-04-27T06:57:14.998Z,99.90
2023-04-27T07:00:03.789Z,99.90
2023-04-27T07:02:50.314Z,99.90
2023-04-27T07:05:37.049Z,99.90
2023-04-27T07:08:23.968Z,99.90
2023-04-27T07:11:10.399Z,99.90
2023-04-27T07:13:56.809Z,99.90
2023-04-27T07:16:44.654Z,99.90
2023-04-27T07:19:31.443Z,99.90
2023-04-27T07:22:17.893Z,99.90
2023-04-27T07:25:05.372Z,99.90
2023-04-27T07:27:52.386Z,99.90
2023-04-27T07:30:39.046Z,99.90
2023-04-27T07:33:26.866Z,99.90
2023-04-27T07:36:13.443Z,99.90
2023-04-27T07:38:59.796Z,99.90
2023-04-27T07:41:46.156Z,99.90
2023-04-27T07:44:33.413Z,99.90
2023-04-27T07:47:19.726Z,99.90
2023-04-27T07:50:08.982Z,99.90
2023-04-27T07:52:56.018Z,99.90
2023-04-27T07:55:43.912Z,99.90
2023-04-27T07:58:30.623Z,99.90
2023-04-27T08:01:18.501Z,99.90
2023-04-27T08:04:07.508Z,99.90
2023-04-27T08:06:56.019Z,99.90
2023-04-27T08:09:42.942Z,99.90
2023-04-27T08:12:29.329Z,99.90
2023-04-27T08:15:15.852Z,99.90
2023-04-27T08:18:02.351Z,99.40
2023-04-27T08:20:48.699Z,98.10
2023-04-27T08:23:37.167Z,96.90
2023-04-27T08:26:25.760Z,96.60
2023-04-27T08:29:26.246Z,97.00
2023-04-27T08:32:14.995Z,97.00
2023-04-27T08:35:01.378Z,98.30
2023-04-27T08:37:47.871Z,97.90
2023-04-27T08:40:35.709Z,98.40
2023-04-27T08:43:22.342Z,97.90
2023-04-27T08:46:08.611Z,98.10
2023-04-27T08:48:56.524Z,97.30
2023-04-27T08:51:43.541Z,94.90
2023-04-27T08:54:31.084Z,94.00
2023-04-27T08:57:19.089Z,93.50
2023-04-27T09:00:12.815Z,93.60
2023-04-27T09:03:04.009Z,93.30
2023-04-27T09:06:03.695Z,93.00
2023-04-27T09:08:52.346Z,93.50
2023-04-27T09:11:40.381Z,93.00
2023-04-27T09:14:28.197Z,92.50
2023-04-27T09:17:14.990Z,92.10
2023-04-27T09:20:10.759Z,92.30
2023-04-27T09:22:58.721Z,92.00
2023-04-27T09:25:45.763Z,92.00
2023-04-27T09:28:34.213Z,91.30
2023-04-27T09:31:22.690Z,91.20
2023-04-27T09:34:09.170Z,90.00
2023-04-27T09:36:55.963Z,88.40
2023-04-27T09:39:45.758Z,89.70
2023-04-27T09:42:33.040Z,90.20
2023-04-27T09:45:20.962Z,90.70
2023-04-27T09:48:09.677Z,89.50
2023-04-27T09:50:56.062Z,88.50
2023-04-27T09:53:50.768Z,88.20
2023-04-27T09:56:49.301Z,86.10
2023-04-27T10:00:00.198Z,84.40
2023-04-27T10:02:54.528Z,83.70
2023-04-27T10:06:52.183Z,85.10
2023-04-27T10:09:42.295Z,86.20
2023-04-27T10:12:34.514Z,87.90
2023-04-27T10:15:28.160Z,88.40
2023-04-27T10:18:25.998Z,89.30
2023-04-27T10:21:12.707Z,89.20
2023-04-27T10:24:08.589Z,88.50
2023-04-27T10:27:03.260Z,88.40
2023-04-27T10:29:49.997Z,87.80
2023-04-27T10:32:36.799Z,86.50
2023-04-27T10:35:24.504Z,84.20
2023-04-27T10:38:16.277Z,83.60
2023-04-27T10:41:05.529Z,82.50
2023-04-27T10:43:52.405Z,82.60
2023-04-27T10:46:51.244Z,82.50
2023-04-27T10:49:37.889Z,81.70
2023-04-27T10:52:24.341Z,82.10
2023-04-27T10:55:15.774Z,81.10
2023-04-27T10:58:04.439Z,80.20
2023-04-27T11:00:51.074Z,79.30
2023-04-27T11:03:39.080Z,79.50
2023-04-27T11:06:26.256Z,79.10
2023-04-27T11:09:12.866Z,78.60
2023-04-27T11:11:59.504Z,78.40
2023-04-27T11:14:47.753Z,78.10
2023-04-27T11:17:34.486Z,79.10
2023-04-27T11:20:26.456Z,79.40
2023-04-27T11:23:23.243Z,77.60
2023-04-27T11:26:11.234Z,77.50
2023-04-27T11:29:05.245Z,79.10
2023-04-27T11:31:53.403Z,80.10
2023-04-27T11:34:40.295Z,80.70
2023-04-27T11:37:28.580Z,80.20
2023-04-27T11:40:15.775Z,79.20
2023-04-27T11:43:04.107Z,79.20
2023-04-27T11:45:51.615Z,78.20
2023-04-27T11:48:40.430Z,80.00
2023-04-27T11:51:27.132Z,86.10
2023-04-27T11:54:14.013Z,86.20
2023-04-27T11:57:07.065Z,84.40
2023-04-27T11:59:53.674Z,82.20
2023-04-27T12:02:40.175Z,81.30
2023-04-27T12:05:28.013Z,82.30
2023-04-27T12:08:14.592Z,82.50
2023-04-27T12:11:01.156Z,84.90
2023-04-27T12:13:48.237Z,82.80
2023-04-27T12:16:34.625Z,81.70
2023-04-27T12:19:21.053Z,81.50
2023-04-27T12:22:08.816Z,80.90
2023-04-27T12:24:55.991Z,77.40
2023-04-27T12:27:42.937Z,79.80
2023-04-27T12:30:29.730Z,80.20
2023-04-27T12:33:16.624Z,81.50
2023-04-27T12:36:03.345Z,83.70
2023-04-27T12:38:51.751Z,77.90
2023-04-27T12:41:38.316Z,78.00
2023-04-27T12:44:24.724Z,78.10
2023-04-27T12:47:15.482Z,76.00
2023-04-27T12:50:11.005Z,75.80
2023-04-27T12:52:57.728Z,81.70
2023-04-27T12:55:46.888Z,77.90
2023-04-27T12:58:33.396Z,80.50
2023-04-27T13:01:24.589Z,80.20
2023-04-27T13:04:18.849Z,76.90
2023-04-27T13:07:06.408Z,79.40
2023-04-27T13:09:52.814Z,77.00
2023-04-27T13:12:40.726Z,77.50
2023-04-27T13:15:27.499Z,79.50
2023-04-27T13:18:14.079Z,79.00
2023-04-27T13:21:01.042Z,74.70
2023-04-27T13:23:47.872Z,77.30
2023-04-27T13:26:34.880Z,78.10
2023-04-27T13:29:24.414Z,78.70
2023-04-27T13:32:10.806Z,75.50
2023-04-27T13:34:57.251Z,74.60
2023-04-27T13:40:33.618Z,76.00
2023-04-27T13:43:20.232Z,77.10
2023-04-27T13:54:14.261Z,78.80
2023-04-27T14:17:11.056Z,79.90
2023-04-27T14:19:57.385Z,80.10
2023-04-27T14:22:43.985Z,78.40
2023-04-27T14:25:32.704Z,79.00
2023-04-27T14:28:19.368Z,79.00
2023-04-27T14:31:05.879Z,79.30
2023-04-27T14:33:53.574Z,79.30
2023-04-27T14:36:39.729Z,79.30
2023-04-27T14:39:28.018Z,78.30
2023-04-27T14:42:14.567Z,78.80
2023-04-27T14:45:00.958Z,78.80
2023-04-27T14:47:48.692Z,79.70
2023-04-27T14:50:36.628Z,80.30
2023-04-27T14:53:23.199Z,80.30
2023-04-27T14:56:09.589Z,80.90
2023-04-27T14:58:56.225Z,80.50
2023-04-27T15:01:42.599Z,80.50
2023-04-27T15:04:29.022Z,79.50
2023-04-27T15:07:17.209Z,79.40
2023-04-27T15:10:04.184Z,79.90
2023-04-27T15:12:51.933Z,79.50
2023-04-27T15:15:39.302Z,79.90
2023-04-27T15:18:26.229Z,79.00
2023-04-27T15:21:12.606Z,79.70
2023-04-27T15:24:00.636Z,79.50
2023-04-27T15:26:48.479Z,79.00
2023-04-27T15:29:35.411Z,79.30
2023-04-27T15:32:29.688Z,79.50
2023-04-27T15:35:16.729Z,79.20
2023-04-27T15:38:03.695Z,79.40
2023-04-27T15:40:51.474Z,79.40
2023-04-27T15:43:37.932Z,78.90
2023-04-27T15:46:24.444Z,78.40
2023-04-27T15:49:12.551Z,78.10
2023-04-27T15:51:59.242Z,78.70
2023-04-27T15:54:45.643Z,79.20
2023-04-27T15:57:33.590Z,78.40
2023-04-27T16:00:22.309Z,78.60
2023-04-27T16:03:11.384Z,78.00
2023-04-27T16:05:58.226Z,78.20
2023-04-27T16:08:44.695Z,79.10
2023-04-27T16:11:31.438Z,80.00
2023-04-27T16:14:19.642Z,79.90
2023-04-27T16:17:06.691Z,81.30
2023-04-27T16:19:52.989Z,79.90
2023-04-27T16:22:39.700Z,78.60
2023-04-27T16:25:26.512Z,78.60
2023-04-27T16:28:12.992Z,79.00
2023-04-27T16:31:00.725Z,80.50
2023-04-27T16:33:48.272Z,81.40
2023-04-27T16:36:34.741Z,81.20
2023-04-27T16:39:20.988Z,81.80
2023-04-27T16:42:07.564Z,81.30
2023-04-27T16:44:54.722Z,81.70
2023-04-27T16:47:42.718Z,82.30
2023-04-27T16:50:31.495Z,82.60
2023-04-27T16:53:21.002Z,82.90
2023-04-27T16:56:08.065Z,83.00
2023-04-27T16:58:54.765Z,82.50
2023-04-27T17:01:41.115Z,82.90
2023-04-27T17:04:30.694Z,83.00
2023-04-27T17:07:17.375Z,82.80
2023-04-27T17:10:05.543Z,82.80
2023-04-27T17:12:52.649Z,83.00
2023-04-27T17:15:39.474Z,83.40
2023-04-27T17:18:25.826Z,83.70
2023-04-27T17:21:14.282Z,84.20
2023-04-27T17:24:00.840Z,83.70
2023-04-27T17:26:48.192Z,83.70
2023-04-27T17:29:34.495Z,84.10
2023-04-27T17:32:21.232Z,84.70
2023-04-27T17:35:08.764Z,85.30
2023-04-27T17:37:56.605Z,85.10
2023-04-27T17:40:44.503Z,85.10
2023-04-27T17:43:31.180Z,85.10
2023-04-27T17:46:17.876Z,85.00
2023-04-27T17:49:04.468Z,85.40
2023-04-27T17:51:50.949Z,85.80
2023-04-27T17:54:40.740Z,86.20
2023-04-27T17:57:27.391Z,86.90
2023-04-27T18:00:17.918Z,87.80
2023-04-27T18:03:04.759Z,88.60
2023-04-27T18:05:51.386Z,89.40
2023-04-27T18:08:37.770Z,90.10
2023-04-27T18:11:25.682Z,90.60
2023-04-27T18:14:12.237Z,91.10
2023-04-27T18:16:58.670Z,91.20
2023-04-27T18:19:46.036Z,91.20
2023-04-27T18:22:32.517Z,91.40
2023-04-27T18:25:20.532Z,91.70
2023-04-27T18:28:08.230Z,92.00
2023-04-27T18:30:55.059Z,92.50
2023-04-27T18:33:41.689Z,92.10
2023-04-27T18:36:28.849Z,92.30
2023-04-27T18:39:16.002Z,92.90
2023-04-27T18:42:03.019Z,92.50
2023-04-27T18:44:54.588Z,92.40
2023-04-27T18:47:41.179Z,92.60
2023-04-27T18:50:27.650Z,92.90
2023-04-27T18:53:14.020Z,92.80
2023-04-27T18:56:02.108Z,92.60
2023-04-27T18:58:49.141Z,92.30
2023-04-27T19:01:38.109Z,92.30
2023-04-27T19:04:25.939Z,92.40
2023-04-27T19:07:12.969Z,92.80
2023-04-27T19:09:59.707Z,92.60
2023-04-27T19:12:46.100Z,92.70
2023-04-27T19:15:32.603Z,92.90
2023-04-27T19:18:20.557Z,93.10
2023-04-27T19:21:10.008Z,92.90
2023-04-27T19:23:56.695Z,92.90
2023-04-27T19:26:43.509Z,93.50
2023-04-27T19:29:30.423Z,92.80
2023-04-27T19:32:16.966Z,92.50
2023-04-27T19:35:05.128Z,92.30
2023-04-27T19:37:51.987Z,92.20
2023-04-27T19:40:38.734Z,92.20
2023-04-27T19:43:25.114Z,92.10
2023-04-27T19:46:14.408Z,92.20
2023-04-27T19:49:01.328Z,92.30
2023-04-27T19:51:49.412Z,92.20
2023-04-27T19:54:38.122Z,91.90
2023-04-27T19:57:25.008Z,92.00
2023-04-27T20:00:12.629Z,92.20
2023-04-27T20:02:59.518Z,92.40
2023-04-27T20:05:47.257Z,92.60
2023-04-27T20:08:35.354Z,92.90
2023-04-27T20:11:21.918Z,93.20
2023-04-27T20:14:08.302Z,93.60
2023-04-27T20:16:54.713Z,94.30
2023-04-27T20:19:42.527Z,94.40
2023-04-27T20:22:28.919Z,94.80
2023-04-27T20:25:16.671Z,95.10
2023-04-27T20:28:03.429Z,95.40
2023-04-27T20:30:49.845Z,95.60
2023-04-27T20:33:36.416Z,95.60
2023-04-27T20:36:24.007Z,95.90
2023-04-27T20:39:11.807Z,96.20
2023-04-27T20:42:00.055Z,96.10
2023-04-27T20:44:48.336Z,96.30
2023-04-27T20:47:34.920Z,96.30
2023-04-27T20:50:21.521Z,96.40
2023-04-27T20:53:08.361Z,96.40
2023-04-27T20:55:55.017Z,96.60
2023-04-27T20:58:42.907Z,96.70
2023-04-27T21:01:29.805Z,96.90
2023-04-27T21:04:16.683Z,96.80
2023-04-27T21:07:03.416Z,96.80
2023-04-27T21:09:50.299Z,96.80
2023-04-27T21:12:36.972Z,96.70
2023-04-27T21:15:25.060Z,96.90
2023-04-27T21:18:19.183Z,96.80
2023-04-27T21:21:15.640Z,96.90
2023-04-27T21:24:07.774Z,97.00
2023-04-27T21:26:54.821Z,97.30
2023-04-27T21:29:41.605Z,97.60
2023-04-27T21:32:29.655Z,97.70
2023-04-27T21:35:15.954Z,97.90
2023-04-27T21:38:02.629Z,98.10
2023-04-27T21:40:49.138Z,98.30
2023-04-27T21:43:35.635Z,98.60
2023-04-27T21:46:23.433Z,98.80
2023-04-27T21:49:11.063Z,98.90
2023-04-27T21:51:57.534Z,99.10
2023-04-27T21:54:43.837Z,99.20
2023-04-27T21:57:32.388Z,99.50
2023-04-27T22:00:21.526Z,99.40
2023-04-27T22:03:08.944Z,99.50
2023-04-27T22:05:57.475Z,99.90
2023-04-27T22:08:44.084Z,99.80
2023-04-27T22:11:30.630Z,99.80
2023-04-27T22:14:17.330Z,99.90
2023-04-27T22:17:03.910Z,99.90
2023-04-27T22:19:50.557Z,99.90
2023-04-27T22:22:38.518Z,99.90
2023-04-27T22:25:25.101Z,99.90
2023-04-27T22:28:11.904Z,99.80
2023-04-27T22:30:58.500Z,99.90
2023-04-27T22:33:44.952Z,99.90
2023-04-27T22:36:31.665Z,99.90
2023-04-27T22:39:19.928Z,99.90
2023-04-27T22:42:06.696Z,99.90
2023-04-27T22:44:53.282Z,99.90
2023-04-27T22:47:41.207Z,99.90
2023-04-27T22:50:27.775Z,99.90
2023-04-27T22:53:14.121Z,99.90
2023-04-27T22:56:03.424Z,99.90
2023-04-27T22:58:50.014Z,99.90
2023-04-27T23:01:36.580Z,99.90
2023-04-27T23:04:23.230Z,99.90
2023-04-27T23:07:10.248Z,99.90
2023-04-27T23:09:57.483Z,99.90
2023-04-27T23:12:45.302Z,99.90
2023-04-27T23:15:31.868Z,99.90
2023-04-27T23:18:18.276Z,99.90
2023-04-27T23:21:05.340Z,99.90
2023-04-27T23:23:51.987Z,99.90
2023-04-27T23:26:38.719Z,99.90
2023-04-27T23:29:26.551Z,99.90
2023-04-27T23:32:13.116Z,99.90
2023-04-27T23:34:59.431Z,99.90
2023-04-27T23:37:46.011Z,99.90
2023-04-27T23:40:32.541Z,99.90
2023-04-27T23:43:19.183Z,99.90
2023-04-27T23:46:07.242Z,99.90
2023-04-27T23:48:53.623Z,99.90
2023-04-27T23:51:40.071Z,99.90
2023-04-27T23:54:26.753Z,99.90
2023-04-27T23:57:13.520Z,99.90
2023-04-27T23:59:59.901Z,99.90
